Time;durP1;ratioP1;P1;durP2;ratioP2;P2;SDS_P1;SDS_P2;PMS_P1;PMS_P2;Temp;Humidity;BMP_temperature;BMP_pressure;BME280_temperature;BME280_humidity;BME280_pressure;Samples;Min_cycle;Max_cycle;Signal;HPM_P1;HPM_P2
2023/12/18 00:01:27;;;;;;;39.55;20.27;;;7.00;99.90;;;;;;5088865;28;20427;-44
2023/12/18 00:03:54;;;;;;;35.30;19.08;;;7.00;99.90;;;;;;5082594;28;20486;-45
2023/12/18 00:06:19;;;;;;;35.63;19.30;;;7.00;99.90;;;;;;5090845;28;20048;-45
2023/12/18 00:08:45;;;;;;;33.05;18.90;;;7.10;99.90;;;;;;5090743;28;20051;-44
2023/12/18 00:11:11;;;;;;;35.58;19.13;;;7.10;99.90;;;;;;5091276;28;20048;-45
2023/12/18 00:13:36;;;;;;;37.17;19.95;;;7.10;99.90;;;;;;5090295;28;20118;-44
2023/12/18 00:16:02;;;;;;;34.70;19.30;;;7.10;99.90;;;;;;5090844;28;20576;-45
2023/12/18 00:18:28;;;;;;;30.95;18.70;;;7.10;99.90;;;;;;5091302;28;20036;-45
2023/12/18 00:20:53;;;;;;;33.08;19.05;;;7.10;99.90;;;;;;5093044;28;20112;-47
2023/12/18 00:23:19;;;;;;;34.60;19.80;;;7.10;99.90;;;;;;5091851;28;20115;-45
2023/12/18 00:25:44;;;;;;;32.58;19.45;;;7.10;99.90;;;;;;5092969;28;20389;-44
2023/12/18 00:28:10;;;;;;;36.30;21.27;;;7.10;99.90;;;;;;5086201;28;20035;-44
2023/12/18 00:30:36;;;;;;;30.27;19.77;;;7.10;99.90;;;;;;5088598;28;20035;-45
2023/12/18 00:33:02;;;;;;;33.08;19.67;;;7.10;99.90;;;;;;5091578;28;20061;-44
2023/12/18 00:35:28;;;;;;;30.30;19.38;;;7.10;99.90;;;;;;5091927;28;20059;-44
2023/12/18 00:37:54;;;;;;;35.15;20.17;;;7.10;99.90;;;;;;5089589;28;20036;-45
2023/12/18 00:40:20;;;;;;;31.83;20.30;;;7.10;99.90;;;;;;5083757;28;20073;-44
2023/12/18 00:42:47;;;;;;;31.52;20.05;;;7.10;99.90;;;;;;5089424;28;20079;-44
2023/12/18 00:45:16;;;;;;;33.13;20.42;;;7.10;99.90;;;;;;5091456;28;20040;-44
2023/12/18 00:47:42;;;;;;;31.42;20.20;;;7.10;99.90;;;;;;5093166;28;20032;-45
2023/12/18 00:50:09;;;;;;;34.45;20.25;;;7.10;99.90;;;;;;5089396;28;20039;-44
2023/12/18 00:52:39;;;;;;;31.35;19.77;;;7.10;99.90;;;;;;5091188;28;20055;-44
2023/12/18 00:55:06;;;;;;;34.20;18.95;;;7.10;99.90;;;;;;5092881;28;20044;-45
2023/12/18 00:57:31;;;;;;;33.88;20.35;;;7.10;99.90;;;;;;5086792;28;20043;-44
2023/12/18 00:59:57;;;;;;;35.05;20.88;;;7.10;99.90;;;;;;5085131;28;20040;-45
2023/12/18 01:02:22;;;;;;;37.10;20.65;;;7.10;99.90;;;;;;5079846;28;20128;-46
2023/12/18 01:04:48;;;;;;;33.55;20.42;;;7.10;99.90;;;;;;5075431;28;20504;-44
2023/12/18 01:07:13;;;;;;;35.60;20.38;;;7.10;99.90;;;;;;5079382;28;20048;-45
2023/12/18 01:09:39;;;;;;;33.65;20.23;;;7.10;99.90;;;;;;5079854;28;20047;-44
2023/12/18 01:12:05;;;;;;;33.83;20.55;;;7.00;99.90;;;;;;5079996;28;20179;-45
2023/12/18 01:14:31;;;;;;;32.25;20.83;;;7.10;99.90;;;;;;5080785;28;20036;-44
2023/12/18 01:16:56;;;;;;;30.33;20.55;;;7.10;99.90;;;;;;5076430;28;20461;-45
2023/12/18 01:19:22;;;;;;;32.95;21.08;;;7.10;99.90;;;;;;5075511;28;20056;-48
2023/12/18 01:21:47;;;;;;;31.17;19.95;;;7.10;99.90;;;;;;5074227;28;20047;-46
2023/12/18 01:24:13;;;;;;;33.58;20.92;;;7.10;99.90;;;;;;5078044;28;20143;-45
2023/12/18 01:26:39;;;;;;;32.78;20.63;;;7.10;99.90;;;;;;5076818;28;20051;-46
2023/12/18 01:29:05;;;;;;;36.05;20.80;;;7.10;99.90;;;;;;5074611;28;20127;-45
2023/12/18 01:31:30;;;;;;;34.35;20.83;;;7.10;99.90;;;;;;5075421;28;20072;-44
2023/12/18 01:33:58;;;;;;;35.03;20.77;;;7.10;99.90;;;;;;5076652;28;20044;-45
2023/12/18 01:36:24;;;;;;;31.98;21.58;;;7.10;99.90;;;;;;5082891;28;20114;-45
2023/12/18 01:38:50;;;;;;;34.90;21.75;;;7.10;99.90;;;;;;5084184;28;20492;-46
2023/12/18 01:41:19;;;;;;;38.83;21.58;;;7.10;99.90;;;;;;5083229;28;20046;-45
2023/12/18 01:43:44;;;;;;;37.95;22.27;;;7.10;99.90;;;;;;5083635;28;20043;-45
2023/12/18 01:46:17;;;;;;;36.72;22.08;;;7.10;99.90;;;;;;5087138;28;20492;-45
2023/12/18 01:48:43;;;;;;;32.40;21.77;;;7.10;99.90;;;;;;5090204;28;20390;-46
2023/12/18 01:51:09;;;;;;;35.38;22.15;;;7.20;99.90;;;;;;5087733;28;20039;-47
2023/12/18 01:53:42;;;;;;;32.38;21.73;;;7.10;99.90;;;;;;5087249;28;20048;-45
2023/12/18 01:56:08;;;;;;;36.13;21.90;;;7.10;99.90;;;;;;5079413;28;20459;-48
2023/12/18 01:58:35;;;;;;;34.97;22.65;;;7.10;99.90;;;;;;5091467;28;20079;-45
2023/12/18 02:01:01;;;;;;;40.53;23.05;;;7.10;99.90;;;;;;5090444;28;20127;-44
2023/12/18 02:03:30;;;;;;;40.83;23.02;;;7.10;99.90;;;;;;5090027;28;20043;-45
2023/12/18 02:05:57;;;;;;;35.72;21.90;;;7.10;99.90;;;;;;5091924;28;20118;-45
2023/12/18 02:08:24;;;;;;;31.52;22.00;;;7.10;99.90;;;;;;5088949;28;20126;-44
2023/12/18 02:10:49;;;;;;;36.83;23.42;;;7.10;99.90;;;;;;5088956;28;20040;-45
2023/12/18 02:13:15;;;;;;;35.58;21.75;;;7.10;99.90;;;;;;5088116;28;20181;-49
2023/12/18 02:15:41;;;;;;;35.78;23.27;;;7.20;99.90;;;;;;5088991;28;20032;-46
2023/12/18 02:18:06;;;;;;;33.47;21.50;;;7.20;99.90;;;;;;5088502;28;20048;-45
2023/12/18 02:20:32;;;;;;;31.63;23.35;;;7.20;99.90;;;;;;5086480;28;20043;-45
2023/12/18 02:22:57;;;;;;;34.00;21.42;;;7.20;99.90;;;;;;5084085;28;20059;-47
2023/12/18 02:25:23;;;;;;;43.85;23.25;;;7.20;99.90;;;;;;5091534;28;20040;-44
2023/12/18 02:27:49;;;;;;;39.80;23.02;;;7.20;99.90;;;;;;5086861;28;20377;-46
2023/12/18 02:30:20;;;;;;;33.70;23.02;;;7.20;99.90;;;;;;5094322;28;20043;-45
2023/12/18 02:32:46;;;;;;;38.47;22.60;;;7.20;99.90;;;;;;5088593;28;20047;-44
2023/12/18 02:35:12;;;;;;;35.70;23.38;;;7.20;99.90;;;;;;5088511;28;20070;-46
2023/12/18 02:37:38;;;;;;;36.10;23.48;;;7.20;99.90;;;;;;5077696;28;20051;-47
2023/12/18 02:40:04;;;;;;;39.75;23.38;;;7.20;99.90;;;;;;5079916;28;20036;-45
2023/12/18 02:42:30;;;;;;;35.22;23.23;;;7.20;99.90;;;;;;5078662;28;20047;-46
2023/12/18 02:44:56;;;;;;;33.47;22.58;;;7.20;99.90;;;;;;5085812;28;20036;-45
2023/12/18 02:47:22;;;;;;;33.85;22.75;;;7.20;99.90;;;;;;5079953;28;20044;-45
2023/12/18 02:49:48;;;;;;;35.90;22.20;;;7.20;99.90;;;;;;5079317;28;20468;-44
2023/12/18 02:52:13;;;;;;;37.83;23.88;;;7.20;99.90;;;;;;5080020;28;20044;-45
2023/12/18 02:54:39;;;;;;;35.50;22.65;;;7.20;99.90;;;;;;5062000;28;20347;-44
2023/12/18 02:57:05;;;;;;;30.80;20.92;;;7.20;99.90;;;;;;5079801;28;20068;-45
2023/12/18 02:59:31;;;;;;;36.63;23.50;;;7.20;99.90;;;;;;5078523;28;20109;-45
2023/12/18 03:01:56;;;;;;;35.90;22.40;;;7.20;99.90;;;;;;5079630;28;20113;-45
2023/12/18 03:04:22;;;;;;;37.83;22.98;;;7.20;99.90;;;;;;5077190;28;20036;-45
2023/12/18 03:06:48;;;;;;;31.30;21.60;;;7.20;99.90;;;;;;5078332;28;20040;-44
2023/12/18 03:09:13;;;;;;;38.75;22.48;;;7.20;99.90;;;;;;5080368;28;20036;-45
2023/12/18 03:11:40;;;;;;;33.78;21.33;;;7.20;99.90;;;;;;5080464;28;20040;-44
2023/12/18 03:14:07;;;;;;;33.03;22.40;;;7.20;99.90;;;;;;5080931;28;20476;-45
2023/12/18 03:16:33;;;;;;;46.42;21.77;;;7.20;99.90;;;;;;5084548;28;20079;-44
2023/12/18 03:18:59;;;;;;;34.72;21.02;;;7.20;99.90;;;;;;5085654;28;20044;-44
2023/12/18 03:21:24;;;;;;;34.42;22.20;;;7.20;99.90;;;;;;5079144;28;20042;-45
2023/12/18 03:23:50;;;;;;;34.13;21.48;;;7.20;99.90;;;;;;5078887;28;20069;-44
2023/12/18 03:26:15;;;;;;;30.70;21.70;;;7.20;99.90;;;;;;5081235;28;20140;-45
2023/12/18 03:28:41;;;;;;;30.92;22.15;;;7.20;99.90;;;;;;5082793;28;20044;-45
2023/12/18 03:31:07;;;;;;;32.17;22.08;;;7.20;99.90;;;;;;5078527;28;20036;-44
2023/12/18 03:33:32;;;;;;;36.28;21.95;;;7.20;99.90;;;;;;5077476;28;20165;-44
2023/12/18 03:35:58;;;;;;;33.20;22.15;;;7.20;99.90;;;;;;5080851;28;20044;-45
2023/12/18 03:38:24;;;;;;;31.67;21.77;;;7.20;99.90;;;;;;5084703;28;20166;-43
2023/12/18 03:40:50;;;;;;;39.35;21.75;;;7.20;99.90;;;;;;5082186;28;20181;-44
2023/12/18 03:43:15;;;;;;;34.38;21.88;;;7.20;99.90;;;;;;5082684;28;20498;-44
2023/12/18 03:45:41;;;;;;;36.28;21.27;;;7.20;99.90;;;;;;5087467;28;20032;-45
2023/12/18 03:48:07;;;;;;;38.53;22.67;;;7.20;99.90;;;;;;5067884;28;20044;-45
2023/12/18 03:50:32;;;;;;;34.53;21.67;;;7.20;99.90;;;;;;5087955;28;20051;-44
2023/12/18 03:52:58;;;;;;;32.28;21.08;;;7.20;99.90;;;;;;5087544;28;20032;-45
2023/12/18 03:55:24;;;;;;;35.80;21.63;;;7.20;99.90;;;;;;5086182;28;20048;-45
2023/12/18 03:57:50;;;;;;;31.10;20.95;;;7.20;99.90;;;;;;5089805;28;20113;-44
2023/12/18 04:00:16;;;;;;;31.50;21.67;;;7.20;99.90;;;;;;5087778;28;20055;-45
2023/12/18 04:02:41;;;;;;;31.15;22.15;;;7.20;99.90;;;;;;5086317;28;20628;-46
2023/12/18 04:05:07;;;;;;;32.08;20.67;;;7.20;99.90;;;;;;5088210;28;20122;-45
2023/12/18 04:07:33;;;;;;;32.58;19.92;;;7.20;99.90;;;;;;5088244;28;20515;-44
2023/12/18 04:09:59;;;;;;;30.95;20.83;;;7.20;99.90;;;;;;5068374;28;20036;-46
2023/12/18 04:12:24;;;;;;;33.40;20.88;;;7.20;99.90;;;;;;5088613;28;20113;-44
2023/12/18 04:14:50;;;;;;;32.13;21.60;;;7.10;99.90;;;;;;5089619;28;20043;-46
2023/12/18 04:17:15;;;;;;;32.00;21.27;;;7.20;99.90;;;;;;5087272;28;20040;-47
2023/12/18 04:19:41;;;;;;;28.15;21.05;;;7.20;99.90;;;;;;5091154;28;20138;-45
2023/12/18 04:22:06;;;;;;;36.28;21.83;;;7.10;99.90;;;;;;5086832;28;20035;-44
2023/12/18 04:24:32;;;;;;;29.02;20.17;;;7.10;99.90;;;;;;5089058;28;20040;-45
2023/12/18 04:26:58;;;;;;;26.23;19.60;;;7.10;99.90;;;;;;5086239;28;20040;-46
2023/12/18 04:29:23;;;;;;;32.83;20.33;;;7.10;99.90;;;;;;5087950;28;20040;-45
2023/12/18 04:31:50;;;;;;;30.90;21.27;;;7.10;99.90;;;;;;5086506;28;20058;-46
2023/12/18 04:34:16;;;;;;;30.40;19.95;;;7.10;99.90;;;;;;5090649;28;20595;-45
2023/12/18 04:36:43;;;;;;;29.13;20.40;;;7.10;99.90;;;;;;5084441;28;20036;-45
2023/12/18 04:39:10;;;;;;;28.00;20.25;;;7.10;99.90;;;;;;5088636;28;20036;-45
2023/12/18 04:41:35;;;;;;;33.78;21.80;;;7.10;99.90;;;;;;5086119;28;20036;-44
2023/12/18 04:44:01;;;;;;;34.70;20.85;;;7.10;99.90;;;;;;5069503;28;20032;-45
2023/12/18 04:46:27;;;;;;;32.85;20.08;;;7.10;99.90;;;;;;5086103;28;20384;-47
2023/12/18 04:48:52;;;;;;;30.23;19.10;;;7.10;99.90;;;;;;5086518;28;20044;-45
2023/12/18 04:51:18;;;;;;;29.90;20.02;;;7.10;99.90;;;;;;5087445;28;20062;-46
2023/12/18 04:53:43;;;;;;;33.17;21.00;;;7.10;99.90;;;;;;5091323;28;20465;-45
2023/12/18 04:56:09;;;;;;;32.42;20.50;;;7.10;99.90;;;;;;5087505;28;20093;-45
2023/12/18 04:58:35;;;;;;;31.00;20.30;;;7.10;99.90;;;;;;5086478;28;20075;-47
2023/12/18 05:01:02;;;;;;;29.52;19.45;;;7.10;99.90;;;;;;5088736;28;20123;-48
2023/12/18 05:03:28;;;;;;;28.48;20.08;;;7.10;99.90;;;;;;5087809;28;20089;-44
2023/12/18 05:05:54;;;;;;;33.10;20.35;;;7.10;99.90;;;;;;5089011;28;20044;-44
2023/12/18 05:08:19;;;;;;;31.00;19.52;;;7.10;99.90;;;;;;5086189;28;20071;-44
2023/12/18 05:10:45;;;;;;;31.35;18.90;;;7.10;99.90;;;;;;5088016;28;20131;-44
2023/12/18 05:13:10;;;;;;;30.88;19.48;;;7.10;99.90;;;;;;5087944;28;20064;-44
2023/12/18 05:15:37;;;;;;;34.92;20.70;;;7.10;99.90;;;;;;5087958;28;20032;-45
2023/12/18 05:18:04;;;;;;;28.70;19.52;;;7.10;99.90;;;;;;5087691;28;20093;-46
2023/12/18 05:20:30;;;;;;;29.75;19.58;;;7.10;99.90;;;;;;5086782;28;20093;-45
2023/12/18 05:22:56;;;;;;;28.55;19.55;;;7.10;99.90;;;;;;5088207;28;20024;-46
2023/12/18 05:25:21;;;;;;;33.75;19.70;;;7.10;99.90;;;;;;5088454;28;20036;-46
2023/12/18 05:27:47;;;;;;;28.83;19.55;;;7.10;99.90;;;;;;5085680;28;20128;-47
2023/12/18 05:30:13;;;;;;;26.13;19.98;;;7.10;99.90;;;;;;5086064;28;20050;-44
2023/12/18 05:32:38;;;;;;;25.05;19.00;;;7.10;99.90;;;;;;5083355;28;20489;-48
2023/12/18 05:35:04;;;;;;;26.13;19.58;;;7.10;99.90;;;;;;5080383;28;20059;-46
2023/12/18 05:37:30;;;;;;;29.60;20.70;;;7.10;99.90;;;;;;5081126;28;20071;-44
2023/12/18 05:39:56;;;;;;;29.20;20.27;;;7.10;99.90;;;;;;5083276;28;20531;-44
2023/12/18 05:42:21;;;;;;;32.88;20.40;;;7.10;99.90;;;;;;5079048;28;20032;-45
2023/12/18 05:44:47;;;;;;;32.05;19.77;;;7.10;99.90;;;;;;5081000;28;20245;-46
2023/12/18 05:47:13;;;;;;;30.58;19.73;;;7.10;99.90;;;;;;5080948;28;21497;-45
2023/12/18 05:49:38;;;;;;;26.80;19.40;;;7.10;99.90;;;;;;5063027;28;20058;-45
2023/12/18 05:52:04;;;;;;;31.50;19.60;;;7.10;99.90;;;;;;5081753;28;20047;-45
2023/12/18 05:54:30;;;;;;;31.20;20.58;;;7.10;99.90;;;;;;5079195;28;20040;-44
2023/12/18 05:56:56;;;;;;;30.98;19.48;;;7.10;99.90;;;;;;5081086;28;20878;-45
2023/12/18 05:59:22;;;;;;;29.20;19.63;;;7.20;99.90;;;;;;5080918;28;20048;-45
2023/12/18 06:01:47;;;;;;;28.23;19.95;;;7.20;99.90;;;;;;5080697;28;20040;-45
2023/12/18 06:04:13;;;;;;;29.25;20.17;;;7.20;99.90;;;;;;5080829;28;20058;-44
2023/12/18 06:06:38;;;;;;;29.45;19.90;;;7.20;99.90;;;;;;5080767;28;20046;-44
2023/12/18 06:09:04;;;;;;;28.70;20.30;;;7.20;99.90;;;;;;5081504;28;20047;-45
2023/12/18 06:11:30;;;;;;;30.33;20.27;;;7.20;99.90;;;;;;5079861;28;20036;-46
2023/12/18 06:13:57;;;;;;;28.38;20.48;;;7.20;99.90;;;;;;5080826;28;20101;-45
2023/12/18 06:16:23;;;;;;;31.20;21.05;;;7.20;99.90;;;;;;5081401;28;20043;-44
2023/12/18 06:18:48;;;;;;;28.63;20.13;;;7.20;99.90;;;;;;5080843;28;20036;-46
2023/12/18 06:21:14;;;;;;;30.80;19.95;;;7.20;99.90;;;;;;5082799;28;20028;-45
2023/12/18 06:23:43;;;;;;;33.03;20.33;;;7.20;99.90;;;;;;5079599;28;20121;-45
2023/12/18 06:26:08;;;;;;;27.25;20.63;;;7.20;99.90;;;;;;5081403;28;20047;-48
2023/12/18 06:28:34;;;;;;;30.70;19.25;;;7.30;99.90;;;;;;5083268;28;20494;-46
2023/12/18 06:31:00;;;;;;;33.38;19.67;;;7.30;99.90;;;;;;5081682;28;20484;-44
2023/12/18 06:33:25;;;;;;;26.63;20.13;;;7.30;99.90;;;;;;5080938;28;20040;-45
2023/12/18 06:35:51;;;;;;;25.70;19.58;;;7.30;99.90;;;;;;5080843;28;20656;-46
2023/12/18 06:38:17;;;;;;;27.65;19.73;;;7.30;99.90;;;;;;5062425;28;20055;-44
2023/12/18 06:40:42;;;;;;;30.52;20.25;;;7.30;99.90;;;;;;5081667;28;20727;-44
2023/12/18 06:43:08;;;;;;;32.22;20.27;;;7.30;99.90;;;;;;5080085;28;20085;-45
2023/12/18 06:45:34;;;;;;;35.22;20.58;;;7.30;99.90;;;;;;5079154;28;20032;-44
2023/12/18 06:47:59;;;;;;;30.75;20.25;;;7.30;99.90;;;;;;5086614;28;20079;-44
2023/12/18 06:50:25;;;;;;;33.03;20.77;;;7.30;99.90;;;;;;5088517;28;20052;-44
2023/12/18 06:52:51;;;;;;;39.88;22.35;;;7.30;99.90;;;;;;5081820;28;20106;-45
2023/12/18 06:55:17;;;;;;;30.50;20.25;;;7.30;99.90;;;;;;5079641;28;20052;-44
2023/12/18 06:57:42;;;;;;;33.65;21.92;;;7.30;99.90;;;;;;5075961;28;20059;-46
2023/12/18 07:00:09;;;;;;;30.98;20.63;;;7.30;99.90;;;;;;5079583;28;20040;-46
2023/12/18 07:02:35;;;;;;;28.85;20.80;;;7.30;99.90;;;;;;5083637;28;20040;-45
2023/12/18 07:05:01;;;;;;;30.40;21.77;;;7.30;99.90;;;;;;5080717;28;20051;-44
2023/12/18 07:07:27;;;;;;;35.58;21.80;;;7.30;99.90;;;;;;5078750;28;20036;-45
2023/12/18 07:09:53;;;;;;;29.15;20.90;;;7.30;99.90;;;;;;5081522;28;20182;-44
2023/12/18 07:12:18;;;;;;;29.38;20.92;;;7.30;99.90;;;;;;5084140;28;20542;-45
2023/12/18 07:14:44;;;;;;;31.52;21.67;;;7.30;99.90;;;;;;5065414;28;20044;-44
2023/12/18 07:17:10;;;;;;;31.98;21.45;;;7.30;99.90;;;;;;5083439;28;20060;-46
2023/12/18 07:19:39;;;;;;;31.10;21.70;;;7.30;99.90;;;;;;5085448;28;20047;-45
2023/12/18 07:22:05;;;;;;;34.00;21.38;;;7.30;99.90;;;;;;5077159;28;20047;-45
2023/12/18 07:24:31;;;;;;;32.42;21.05;;;7.30;99.90;;;;;;5076973;28;20494;-45
2023/12/18 07:26:57;;;;;;;37.25;22.20;;;7.40;99.90;;;;;;5084902;28;20129;-46
2023/12/18 07:29:22;;;;;;;35.35;22.88;;;7.40;99.90;;;;;;5086867;28;20054;-47
2023/12/18 07:31:48;;;;;;;37.50;22.63;;;7.30;99.90;;;;;;5083620;28;20090;-44
2023/12/18 07:34:13;;;;;;;34.22;22.25;;;7.40;99.90;;;;;;5083248;28;20055;-44
2023/12/18 07:36:40;;;;;;;33.05;22.25;;;7.30;99.90;;;;;;5088150;28;20048;-45
2023/12/18 07:39:06;;;;;;;32.00;21.95;;;7.30;99.90;;;;;;5088389;28;20055;-45
2023/12/18 07:41:32;;;;;;;32.22;23.00;;;7.30;99.90;;;;;;5086759;28;20166;-44
2023/12/18 07:43:58;;;;;;;31.48;22.23;;;7.40;99.90;;;;;;5090497;28;20127;-47
2023/12/18 07:46:23;;;;;;;32.38;22.58;;;7.30;99.90;;;;;;5089444;28;20032;-44
2023/12/18 07:48:49;;;;;;;32.92;23.85;;;7.30;99.90;;;;;;5089600;28;20466;-44
2023/12/18 07:51:16;;;;;;;33.63;23.20;;;7.30;99.90;;;;;;5082713;28;20051;-45
2023/12/18 07:53:41;;;;;;;32.42;24.02;;;7.40;99.90;;;;;;5082189;28;20465;-46
2023/12/18 07:56:07;;;;;;;36.67;22.48;;;7.40;99.90;;;;;;5083512;28;20040;-45
2023/12/18 07:58:33;;;;;;;36.20;23.50;;;7.40;99.90;;;;;;5064535;28;20110;-45
2023/12/18 08:00:58;;;;;;;34.40;23.73;;;7.30;99.90;;;;;;5085024;28;20442;-44
2023/12/18 08:03:24;;;;;;;36.70;24.10;;;7.40;99.90;;;;;;5084306;28;20055;-44
2023/12/18 08:05:50;;;;;;;39.70;23.52;;;7.30;99.90;;;;;;5081601;28;20377;-45
2023/12/18 08:08:15;;;;;;;32.67;22.92;;;7.40;99.90;;;;;;5081144;28;20421;-44
2023/12/18 08:10:42;;;;;;;35.97;24.55;;;7.40;99.90;;;;;;5083690;28;20373;-45
2023/12/18 08:13:08;;;;;;;35.97;24.58;;;7.40;99.90;;;;;;5083531;28;20063;-45
2023/12/18 08:15:34;;;;;;;37.22;23.02;;;7.40;99.90;;;;;;5083238;28;20052;-44
2023/12/18 08:18:00;;;;;;;31.33;23.98;;;7.40;99.90;;;;;;5082467;28;20040;-45
2023/12/18 08:20:25;;;;;;;33.05;23.90;;;7.50;99.90;;;;;;5083350;28;20151;-46
2023/12/18 08:22:51;;;;;;;29.17;23.25;;;7.50;99.90;;;;;;5064870;28;20036;-45
2023/12/18 08:25:17;;;;;;;33.85;23.70;;;7.50;99.90;;;;;;5084247;28;20047;-45
2023/12/18 08:27:43;;;;;;;36.40;23.98;;;7.50;99.90;;;;;;5080766;28;20040;-45
2023/12/18 08:30:09;;;;;;;34.08;24.15;;;7.50;99.90;;;;;;5081131;28;20137;-46
2023/12/18 08:32:35;;;;;;;37.28;24.90;;;7.60;99.90;;;;;;5078596;28;20050;-48
2023/12/18 08:35:02;;;;;;;34.90;24.80;;;7.60;99.90;;;;;;5080483;28;21630;-45
2023/12/18 08:37:28;;;;;;;37.35;24.58;;;7.60;99.90;;;;;;5081340;28;20056;-45
2023/12/18 08:39:54;;;;;;;36.70;24.90;;;7.60;99.90;;;;;;5079113;28;20512;-47
2023/12/18 08:42:20;;;;;;;37.03;26.63;;;7.60;99.90;;;;;;5078110;28;20608;-45
2023/12/18 08:44:45;;;;;;;35.50;24.30;;;7.70;99.90;;;;;;5083075;28;20036;-45
2023/12/18 08:47:11;;;;;;;35.95;24.30;;;7.70;99.90;;;;;;5082188;28;20127;-44
2023/12/18 08:49:37;;;;;;;35.50;24.48;;;7.70;99.90;;;;;;5081642;28;20028;-44
2023/12/18 08:52:03;;;;;;;36.35;25.70;;;7.70;99.90;;;;;;5085407;28;20043;-45
2023/12/18 08:54:29;;;;;;;41.00;27.30;;;7.70;99.90;;;;;;5082459;28;20055;-46
2023/12/18 08:56:54;;;;;;;35.40;25.90;;;7.70;99.90;;;;;;5090125;28;20100;-45
2023/12/18 08:59:20;;;;;;;36.70;25.20;;;7.70;99.90;;;;;;5085758;28;20060;-44
2023/12/18 09:01:45;;;;;;;34.95;26.38;;;7.80;99.90;;;;;;5083572;28;20343;-45
2023/12/18 09:04:11;;;;;;;38.28;25.45;;;7.70;99.90;;;;;;5090192;28;20043;-44
2023/12/18 09:06:37;;;;;;;35.85;26.55;;;7.80;99.90;;;;;;5091762;28;20042;-45
2023/12/18 09:09:03;;;;;;;40.88;25.52;;;7.70;99.90;;;;;;5092023;28;20474;-44
2023/12/18 09:11:33;;;;;;;39.58;26.52;;;7.70;99.90;;;;;;5091433;28;20040;-45
2023/12/18 09:14:00;;;;;;;37.17;25.95;;;7.80;99.90;;;;;;5090574;28;20044;-45
2023/12/18 09:16:26;;;;;;;42.15;26.65;;;7.80;99.90;;;;;;5089708;28;20042;-46
2023/12/18 09:18:52;;;;;;;42.28;28.13;;;7.80;99.90;;;;;;5090605;28;20036;-44
2023/12/18 09:21:17;;;;;;;38.42;27.10;;;7.80;99.90;;;;;;5091527;28;20040;-46
2023/12/18 09:23:44;;;;;;;36.40;27.02;;;7.90;99.90;;;;;;5091827;28;20084;-47
2023/12/18 09:26:12;;;;;;;35.75;27.00;;;7.90;99.90;;;;;;5091467;28;20448;-45
2023/12/18 09:28:38;;;;;;;39.88;25.98;;;7.90;99.90;;;;;;5072823;28;20705;-47
2023/12/18 09:31:05;;;;;;;37.10;26.42;;;7.90;99.90;;;;;;5086617;28;20055;-46
2023/12/18 09:33:33;;;;;;;39.23;26.20;;;7.90;99.90;;;;;;5087985;28;20084;-46
2023/12/18 09:35:59;;;;;;;40.22;28.20;;;7.80;99.90;;;;;;5089482;28;20056;-45
2023/12/18 09:38:25;;;;;;;43.05;28.10;;;7.90;99.90;;;;;;5091033;28;20060;-46
2023/12/18 09:40:51;;;;;;;40.47;27.50;;;7.90;99.90;;;;;;5088314;28;20089;-46
2023/12/18 09:43:17;;;;;;;36.97;27.45;;;7.90;99.90;;;;;;5087909;28;20409;-46
2023/12/18 09:45:48;;;;;;;36.53;27.13;;;7.90;99.90;;;;;;5090077;28;20040;-46
2023/12/18 09:48:16;;;;;;;38.05;27.02;;;7.90;99.90;;;;;;5090547;28;20071;-43
2023/12/18 09:50:43;;;;;;;34.88;26.80;;;7.90;99.90;;;;;;5090115;28;20128;-43
2023/12/18 09:53:10;;;;;;;41.67;27.73;;;7.90;99.90;;;;;;5090028;28;20138;-43
2023/12/18 09:55:36;;;;;;;39.97;26.45;;;8.00;99.90;;;;;;5090179;28;20089;-44
2023/12/18 09:58:02;;;;;;;41.65;27.23;;;8.00;99.90;;;;;;5091296;28;20036;-43
2023/12/18 10:00:28;;;;;;;37.92;26.90;;;8.00;99.90;;;;;;5088308;28;20098;-42
2023/12/18 10:02:58;;;;;;;40.50;26.98;;;8.00;99.90;;;;;;5089882;28;20064;-45
2023/12/18 10:05:24;;;;;;;37.50;28.52;;;8.00;99.90;;;;;;5083968;28;20050;-46
2023/12/18 10:07:51;;;;;;;37.15;26.58;;;8.00;99.90;;;;;;5090909;28;20119;-46
2023/12/18 10:10:17;;;;;;;40.63;27.02;;;8.00;99.90;;;;;;5070304;28;20047;-44
2023/12/18 10:12:43;;;;;;;38.08;26.58;;;8.00;99.90;;;;;;5091057;28;20365;-47
2023/12/18 10:15:11;;;;;;;44.85;27.15;;;8.00;99.90;;;;;;5087714;28;20036;-43
2023/12/18 10:17:40;;;;;;;;;;;8.00;99.90;;;;;;5090560;28;20119;-43
2023/12/18 10:20:07;;;;;;;40.75;27.40;;;8.00;99.90;;;;;;5089991;28;20026;-45
2023/12/18 10:22:33;;;;;;;37.60;26.30;;;8.10;99.90;;;;;;5088168;28;20032;-42
2023/12/18 10:24:59;;;;;;;40.75;27.13;;;8.10;99.90;;;;;;5089952;28;20040;-45
2023/12/18 10:27:25;;;;;;;32.35;25.92;;;8.10;99.90;;;;;;5089848;28;20043;-44
2023/12/18 10:29:51;;;;;;;38.30;26.83;;;8.10;99.90;;;;;;5089537;28;20036;-44
2023/12/18 10:32:17;;;;;;;36.90;25.55;;;8.10;99.90;;;;;;5073195;28;20089;-43
2023/12/18 10:34:45;;;;;;;41.90;26.55;;;8.10;99.90;;;;;;5089323;28;20127;-45
2023/12/18 10:37:11;;;;;;;42.60;27.60;;;8.10;99.90;;;;;;5086872;28;20128;-46
2023/12/18 10:39:40;;;;;;;37.47;26.92;;;8.10;99.90;;;;;;5089556;28;20109;-45
2023/12/18 10:42:16;;;;;;;39.15;25.88;;;8.10;99.90;;;;;;5088959;28;20046;-44
2023/12/18 10:44:43;;;;;;;35.03;25.10;;;8.20;99.90;;;;;;5092896;28;20063;-45
2023/12/18 10:47:09;;;;;;;37.22;26.40;;;8.20;99.90;;;;;;5096156;28;20045;-43
2023/12/18 10:49:39;;;;;;;36.13;26.17;;;8.20;99.90;;;;;;5096964;28;20036;-43
2023/12/18 10:52:05;;;;;;;46.65;27.52;;;8.20;99.90;;;;;;5094245;28;20111;-44
2023/12/18 10:54:32;;;;;;;36.92;26.55;;;8.30;99.90;;;;;;5096205;28;20087;-43
2023/12/18 10:56:59;;;;;;;39.42;26.33;;;8.20;99.90;;;;;;5078606;28;20032;-44
2023/12/18 10:59:27;;;;;;;42.28;27.52;;;8.20;99.90;;;;;;5093891;28;20097;-45
2023/12/18 11:01:52;;;;;;;35.72;25.65;;;8.20;99.90;;;;;;5097903;28;20562;-43
2023/12/18 11:04:18;;;;;;;39.38;26.58;;;8.20;99.90;;;;;;5096229;28;20052;-44
2023/12/18 11:06:45;;;;;;;39.72;25.92;;;8.10;99.90;;;;;;5099882;28;20060;-44
2023/12/18 11:09:12;;;;;;;36.95;25.13;;;8.10;99.90;;;;;;5094812;28;20044;-43
2023/12/18 11:11:38;;;;;;;37.63;26.27;;;8.10;99.90;;;;;;5095986;28;20126;-44
2023/12/18 11:14:19;;;;;;;38.95;25.17;;;8.20;99.90;;;;;;5092742;28;20142;-46
2023/12/18 11:17:09;;;;;;;35.95;26.02;;;8.20;99.90;;;;;;5095600;28;20048;-43
2023/12/18 11:19:53;;;;;;;37.58;26.17;;;8.20;99.90;;;;;;5095879;28;20469;-46
2023/12/18 11:22:23;;;;;;;36.78;24.88;;;8.20;99.90;;;;;;5095916;28;20071;-43
2023/12/18 11:24:49;;;;;;;37.40;24.98;;;8.30;99.90;;;;;;5096188;28;20185;-43
2023/12/18 11:27:17;;;;;;;34.70;23.85;;;8.30;99.90;;;;;;5095897;28;20039;-42
2023/12/18 11:29:46;;;;;;;35.00;23.77;;;8.30;99.90;;;;;;5094958;28;20036;-43
2023/12/18 11:32:42;;;;;;;38.08;25.05;;;8.40;99.90;;;;;;5096460;28;20390;-43
2023/12/18 11:35:11;;;;;;;32.30;23.55;;;8.40;99.90;;;;;;5095600;28;20127;-43
2023/12/18 11:37:48;;;;;;;33.40;23.60;;;8.40;99.90;;;;;;5096239;28;20043;-44
2023/12/18 11:40:29;;;;;;;37.83;24.95;;;8.40;99.90;;;;;;5095906;28;20036;-43
2023/12/18 11:42:55;;;;;;;32.80;23.00;;;8.40;99.90;;;;;;5095559;28;20132;-43
2023/12/18 11:45:25;;;;;;;33.97;22.30;;;8.50;99.90;;;;;;5092881;28;20435;-44
2023/12/18 11:47:55;;;;;;;36.08;22.67;;;8.60;99.90;;;;;;5092582;28;20083;-44
2023/12/18 11:50:24;;;;;;;37.42;23.27;;;8.60;99.90;;;;;;5095800;28;20043;-43
2023/12/18 11:52:50;;;;;;;33.15;22.33;;;8.70;99.90;;;;;;5094036;28;20036;-43
2023/12/18 11:55:40;;;;;;;30.70;21.52;;;8.70;99.90;;;;;;5094991;28;20116;-44
2023/12/18 11:58:07;;;;;;;35.40;23.33;;;8.70;99.90;;;;;;5074836;28;20064;-44
2023/12/18 12:00:34;;;;;;;30.17;21.35;;;8.80;99.90;;;;;;5091376;28;20089;-44
2023/12/18 12:03:02;;;;;;;34.78;22.75;;;8.80;99.90;;;;;;5092155;28;20342;-45
2023/12/18 12:05:29;;;;;;;32.22;20.65;;;8.80;99.90;;;;;;5091122;28;20114;-43
2023/12/18 12:07:55;;;;;;;29.05;21.50;;;8.80;99.90;;;;;;5091125;28;20056;-45
2023/12/18 12:10:21;;;;;;;27.40;21.02;;;8.80;99.90;;;;;;5094203;28;20047;-45
2023/12/18 12:12:53;;;;;;;31.77;21.02;;;8.80;99.90;;;;;;5094130;28;20036;-44
2023/12/18 12:15:22;;;;;;;32.30;21.23;;;8.80;99.90;;;;;;5091903;28;20048;-44
2023/12/18 12:17:48;;;;;;;35.63;20.92;;;8.80;99.90;;;;;;5092480;28;20036;-44
2023/12/18 12:20:14;;;;;;;29.90;20.67;;;8.80;99.90;;;;;;5090804;28;20048;-47
2023/12/18 12:22:40;;;;;;;30.90;20.23;;;8.80;99.90;;;;;;5090270;28;20481;-46
2023/12/18 12:25:06;;;;;;;29.35;19.58;;;8.80;99.90;;;;;;5090243;28;20096;-44
2023/12/18 12:27:32;;;;;;;33.10;19.88;;;8.80;99.90;;;;;;5091765;28;20362;-44
2023/12/18 12:29:58;;;;;;;32.75;20.80;;;8.80;99.90;;;;;;5091240;28;20085;-45
2023/12/18 12:32:24;;;;;;;26.58;19.25;;;8.80;99.90;;;;;;5091654;28;20044;-47
2023/12/18 12:34:50;;;;;;;32.13;19.63;;;8.70;99.90;;;;;;5090934;28;20048;-44